Time;durP1;ratioP1;P1;durP2;ratioP2;P2;SDS_P1;SDS_P2;PMS_P1;PMS_P2;Temp;Humidity;BMP_temperature;BMP_pressure;BME280_temperature;BME280_humidity;BME280_pressure;Samples;Min_cycle;Max_cycle;Signal;HPM_P1;HPM_P2
2022/05/25 00:01:05;;;;;;;16.10;10.60;;;7.70;99.90;;;;;;4988924;28;20481;-43
2022/05/25 00:03:34;;;;;;;18.65;10.18;;;7.40;99.90;;;;;;4988746;28;20038;-41
2022/05/25 00:06:01;;;;;;;15.60;10.32;;;7.80;99.90;;;;;;4989019;28;20444;-42
2022/05/25 00:08:27;;;;;;;16.77;10.75;;;7.40;99.90;;;;;;4987053;28;20054;-41
2022/05/25 00:10:53;;;;;;;15.82;10.65;;;7.40;99.90;;;;;;4988954;28;20466;-41
2022/05/25 00:13:19;;;;;;;16.75;12.18;;;7.40;99.90;;;;;;4988921;28;20031;-42
2022/05/25 00:15:45;;;;;;;17.95;11.20;;;7.40;99.90;;;;;;4988913;28;20501;-42
2022/05/25 00:18:10;;;;;;;17.75;11.82;;;7.40;99.90;;;;;;4987939;28;20042;-42
2022/05/25 00:20:37;;;;;;;18.02;12.68;;;7.50;99.90;;;;;;4988623;28;20552;-41
2022/05/25 00:23:04;;;;;;;20.10;12.68;;;7.50;99.90;;;;;;4988812;28;20101;-42
2022/05/25 00:25:33;;;;;;;19.42;13.60;;;7.70;99.90;;;;;;4988510;28;20073;-42
2022/05/25 00:28:04;;;;;;;18.02;12.48;;;7.50;99.90;;;;;;4988506;28;20046;-42
2022/05/25 00:30:30;;;;;;;19.87;14.00;;;7.70;99.90;;;;;;4988280;28;20496;-42
2022/05/25 00:32:58;;;;;;;16.60;12.90;;;7.50;99.90;;;;;;4988756;28;20042;-42
2022/05/25 00:35:25;;;;;;;18.40;13.05;;;7.60;99.90;;;;;;4988607;28;20137;-41
2022/05/25 00:37:51;;;;;;;22.10;14.73;;;7.60;99.90;;;;;;4987861;28;20054;-41
2022/05/25 00:40:24;;;;;;;23.85;15.68;;;7.50;99.90;;;;;;4987257;28;20050;-41
2022/05/25 00:42:50;;;;;;;23.40;15.60;;;7.50;99.90;;;;;;4988449;28;20080;-41
2022/05/25 00:45:16;;;;;;;26.73;15.82;;;7.70;99.90;;;;;;4988449;28;20074;-41
2022/05/25 00:47:45;;;;;;;28.40;16.73;;;7.50;99.90;;;;;;4988365;28;20046;-43
2022/05/25 00:50:14;;;;;;;25.42;17.02;;;7.70;99.90;;;;;;4988377;28;20233;-42
2022/05/25 00:52:42;;;;;;;24.38;16.42;;;7.50;99.90;;;;;;4951040;28;1087697;-42
2022/05/25 00:55:11;;;;;;;27.63;17.90;;;7.60;99.90;;;;;;4989107;28;20034;-41
2022/05/25 00:57:43;;;;;;;22.73;15.75;;;7.60;99.90;;;;;;4989162;28;20049;-44
2022/05/25 01:00:11;;;;;;;26.75;18.55;;;7.70;99.90;;;;;;4989247;28;20054;-41
2022/05/25 01:02:46;;;;;;;25.67;17.92;;;7.60;99.90;;;;;;4989158;28;20367;-41
2022/05/25 01:05:14;;;;;;;29.48;19.73;;;7.60;99.90;;;;;;4989288;28;20117;-41
2022/05/25 01:08:07;;;;;;;25.73;19.45;;;7.50;99.90;;;;;;4989060;28;20046;-41
2022/05/25 01:10:56;;;;;;;28.13;20.10;;;7.60;99.90;;;;;;4988788;28;20122;-42
2022/05/25 01:13:48;;;;;;;29.25;19.48;;;7.60;99.90;;;;;;4988197;28;20042;-41
2022/05/25 01:16:37;;;;;;;27.27;18.98;;;7.60;99.90;;;;;;4989535;28;20498;-41
2022/05/25 01:19:27;;;;;;;30.15;20.00;;;7.60;99.90;;;;;;4989640;28;20120;-41
2022/05/25 01:22:04;;;;;;;26.20;20.63;;;7.60;99.90;;;;;;4989171;28;20137;-42
2022/05/25 01:24:40;;;;;;;32.40;20.80;;;7.50;99.90;;;;;;4989081;28;20042;-41
2022/05/25 01:27:21;;;;;;;36.25;20.98;;;7.70;99.90;;;;;;4989288;28;20053;-41
2022/05/25 01:29:57;;;;;;;30.17;20.15;;;7.50;99.90;;;;;;4992104;28;20097;-41
2022/05/25 01:32:31;;;;;;;29.27;19.23;;;7.40;99.90;;;;;;4992735;28;20048;-42
2022/05/25 01:35:37;;;;;;;26.45;19.73;;;7.30;99.90;;;;;;4992097;28;20039;-41
2022/05/25 01:38:24;;;;;;;30.95;20.67;;;7.40;99.90;;;;;;4992026;28;20042;-42
2022/05/25 01:41:02;;;;;;;29.92;19.63;;;7.40;99.90;;;;;;4992064;28;20122;-41
2022/05/25 01:43:37;;;;;;;32.72;20.85;;;7.40;99.90;;;;;;4991954;28;20498;-41
2022/05/25 01:46:18;;;;;;;34.42;20.02;;;7.30;99.90;;;;;;4992222;28;20100;-41
2022/05/25 01:48:44;;;;;;;34.30;20.95;;;7.30;99.90;;;;;;4990543;28;20069;-41
2022/05/25 01:51:24;;;;;;;29.02;19.85;;;7.20;99.90;;;;;;4992151;28;20030;-41
2022/05/25 01:53:54;;;;;;;39.72;20.73;;;7.20;99.90;;;;;;4991483;28;20141;-41
2022/05/25 01:56:23;;;;;;;27.67;19.33;;;7.70;99.90;;;;;;4992128;28;20048;-41
2022/05/25 01:58:54;;;;;;;36.92;20.90;;;7.20;99.90;;;;;;4991777;28;20049;-41
2022/05/25 02:01:21;;;;;;;33.88;20.90;;;7.20;99.90;;;;;;4991886;28;20057;-41
2022/05/25 02:06:47;;;;;;;31.35;18.63;;;7.80;99.90;;;;;;4991584;28;20057;-42
2022/05/25 02:09:30;;;;;;;36.70;20.93;;;7.20;99.90;;;;;;4990339;28;20129;-41
2022/05/25 02:12:07;;;;;;;30.98;18.98;;;7.30;99.90;;;;;;4991506;28;20317;-42
2022/05/25 02:14:51;;;;;;;30.25;19.27;;;7.30;99.90;;;;;;4991885;28;20101;-42
2022/05/25 02:17:42;;;;;;;33.55;20.52;;;9.40;99.90;;;;;;4991934;28;20540;-42
2022/05/25 02:20:11;;;;;;;30.42;19.30;;;7.20;99.90;;;;;;4991567;28;20086;-41
2022/05/25 02:22:44;;;;;;;37.50;19.95;;;7.20;99.90;;;;;;4991409;28;20054;-41
2022/05/25 02:25:27;;;;;;;32.65;19.58;;;7.20;99.90;;;;;;4991540;28;20069;-41
2022/05/25 02:28:24;;;;;;;29.50;20.15;;;7.30;99.90;;;;;;4991203;28;20046;-43
2022/05/25 02:30:54;;;;;;;34.00;20.10;;;7.30;99.90;;;;;;4991207;28;20090;-43
2022/05/25 02:33:28;;;;;;;38.70;20.30;;;7.20;99.90;;;;;;4989821;28;20042;-42
2022/05/25 02:35:56;;;;;;;32.60;19.48;;;7.20;99.90;;;;;;4990948;28;20560;-41
2022/05/25 02:38:22;;;;;;;33.22;19.63;;;8.10;99.90;;;;;;4990838;28;20088;-41
2022/05/25 02:40:47;;;;;;;36.85;20.63;;;7.40;99.90;;;;;;4990109;28;20034;-41
2022/05/25 02:43:13;;;;;;;33.08;20.52;;;7.30;99.90;;;;;;4991050;28;20812;-41
2022/05/25 02:45:39;;;;;;;29.58;19.27;;;8.10;99.90;;;;;;4991013;28;20137;-41
2022/05/25 02:48:06;;;;;;;37.70;21.27;;;7.20;99.90;;;;;;4991204;28;20049;-42
2022/05/25 02:50:31;;;;;;;39.97;22.75;;;7.30;99.90;;;;;;4991079;28;20054;-42
2022/05/25 02:52:57;;;;;;;32.65;19.80;;;7.40;99.90;;;;;;4990796;28;20530;-41
2022/05/25 02:55:24;;;;;;;39.55;21.88;;;7.40;99.90;;;;;;4991201;28;20101;-41
2022/05/25 02:57:49;;;;;;;40.10;22.13;;;7.30;99.90;;;;;;5005617;28;20088;-41
2022/05/25 03:00:16;;;;;;;42.53;21.23;;;8.30;99.90;;;;;;4991130;28;20082;-41
2022/05/25 03:02:42;;;;;;;43.40;22.33;;;7.30;99.90;;;;;;4990460;28;20568;-41
2022/05/25 03:05:09;;;;;;;53.40;24.38;;;8.00;99.90;;;;;;4990808;28;20100;-41
2022/05/25 03:07:35;;;;;;;41.20;21.65;;;7.30;99.90;;;;;;4990693;28;20126;-42
2022/05/25 03:10:03;;;;;;;36.55;22.27;;;7.30;99.90;;;;;;4990571;28;20944;-42
2022/05/25 03:12:29;;;;;;;35.03;20.45;;;7.30;99.90;;;;;;4990591;28;20350;-42
2022/05/25 03:14:54;;;;;;;47.13;23.15;;;7.20;99.90;;;;;;4990789;28;20149;-41
2022/05/25 03:17:20;;;;;;;41.42;21.83;;;7.20;99.90;;;;;;4990571;28;20049;-41
2022/05/25 03:19:51;;;;;;;59.28;25.13;;;7.20;99.90;;;;;;4990436;28;20323;-41
2022/05/25 03:22:17;;;;;;;54.35;25.23;;;7.20;99.90;;;;;;4989223;28;20398;-41
2022/05/25 03:24:43;;;;;;;40.03;23.38;;;7.20;99.90;;;;;;4990784;28;20050;-41
2022/05/25 03:27:08;;;;;;;42.30;24.13;;;7.40;99.90;;;;;;4990382;28;20434;-41
2022/05/25 03:29:34;;;;;;;46.03;24.15;;;7.20;99.90;;;;;;4988729;28;20473;-42
2022/05/25 03:32:00;;;;;;;58.03;25.55;;;8.10;99.90;;;;;;4990103;28;20096;-41
2022/05/25 03:34:26;;;;;;;51.63;24.80;;;7.40;99.90;;;;;;4990403;28;20494;-41
2022/05/25 03:36:55;;;;;;;55.78;25.38;;;7.30;99.90;;;;;;4989817;28;20066;-41
2022/05/25 03:39:28;;;;;;;46.80;25.50;;;7.30;99.90;;;;;;4989578;28;20491;-42
2022/05/25 03:42:05;;;;;;;47.80;24.58;;;7.30;99.90;;;;;;4989766;28;20050;-41
2022/05/25 03:44:32;;;;;;;42.50;23.95;;;7.40;99.90;;;;;;4988667;28;20581;-41
2022/05/25 03:46:57;;;;;;;45.63;24.38;;;7.40;99.90;;;;;;4990004;28;20046;-41
2022/05/25 03:49:23;;;;;;;54.72;26.95;;;7.40;99.90;;;;;;4990252;28;20046;-41
2022/05/25 03:51:49;;;;;;;55.08;25.23;;;7.50;99.90;;;;;;4989561;28;20580;-41
2022/05/25 03:54:15;;;;;;;40.55;23.13;;;7.40;99.90;;;;;;4990403;28;20046;-41
2022/05/25 03:56:41;;;;;;;46.95;25.35;;;8.00;99.90;;;;;;4988615;28;20129;-41
2022/05/25 03:59:06;;;;;;;54.08;26.30;;;8.50;99.90;;;;;;4989826;28;20422;-41
2022/05/25 04:01:35;;;;;;;46.60;23.95;;;7.60;99.90;;;;;;4989954;28;20126;-41
2022/05/25 04:04:01;;;;;;;41.55;23.00;;;7.50;99.90;;;;;;4989708;28;20410;-41
2022/05/25 04:06:27;;;;;;;43.75;24.52;;;7.80;99.90;;;;;;4988458;28;20038;-41
2022/05/25 04:08:53;;;;;;;47.78;24.98;;;7.70;99.90;;;;;;4989784;28;20046;-41
2022/05/25 04:11:18;;;;;;;46.15;25.25;;;7.80;99.90;;;;;;4989940;28;20096;-41
2022/05/25 04:13:44;;;;;;;49.58;24.98;;;7.80;99.90;;;;;;4989945;28;20398;-41
2022/05/25 04:16:10;;;;;;;46.85;25.02;;;8.30;99.90;;;;;;4989669;28;20517;-41
2022/05/25 04:18:36;;;;;;;40.92;25.33;;;7.90;99.90;;;;;;4990087;28;20061;-41
2022/05/25 04:21:02;;;;;;;38.97;25.83;;;8.00;99.90;;;;;;4989370;28;20077;-41
2022/05/25 04:23:28;;;;;;;46.08;26.83;;;8.20;99.90;;;;;;4989622;28;20049;-42
2022/05/25 04:25:54;;;;;;;39.15;24.92;;;8.30;99.90;;;;;;4989917;28;20557;-43
2022/05/25 04:28:20;;;;;;;41.33;24.55;;;8.50;99.90;;;;;;4989338;28;20151;-41
2022/05/25 04:30:47;;;;;;;35.20;23.17;;;8.60;99.90;;;;;;4988439;28;20501;-41
2022/05/25 04:33:13;;;;;;;35.92;22.20;;;9.20;99.90;;;;;;4988983;28;20042;-42
2022/05/25 04:35:40;;;;;;;38.63;23.30;;;9.00;99.90;;;;;;4989501;28;20034;-41
2022/05/25 04:38:06;;;;;;;38.33;23.75;;;9.10;99.90;;;;;;4988667;28;20073;-42
2022/05/25 04:40:38;;;;;;;31.20;21.15;;;8.80;99.90;;;;;;4989357;28;20054;-41
2022/05/25 04:43:16;;;;;;;37.53;23.50;;;8.90;99.90;;;;;;4988976;28;20398;-41
2022/05/25 04:45:44;;;;;;;30.40;20.85;;;9.00;99.90;;;;;;4989398;28;20046;-41
2022/05/25 04:48:12;;;;;;;38.80;22.50;;;9.00;99.90;;;;;;4988863;28;20528;-41
2022/05/25 04:50:40;;;;;;;32.72;21.20;;;9.10;99.90;;;;;;4989188;28;20046;-41
2022/05/25 04:53:08;;;;;;;27.42;19.23;;;9.20;99.90;;;;;;4988688;28;20506;-42
2022/05/25 04:58:23;;;;;;;26.02;19.40;;;9.50;99.90;;;;;;4989389;28;20046;-41
2022/05/25 05:00:50;;;;;;;31.80;20.60;;;9.40;99.90;;;;;;4988642;28;20043;-41
2022/05/25 05:03:16;;;;;;;27.00;20.17;;;9.50;99.90;;;;;;4990252;28;20089;-42
2022/05/25 05:05:43;;;;;;;32.10;22.52;;;9.70;99.90;;;;;;4993119;28;20084;-41
2022/05/25 05:08:08;;;;;;;28.30;20.65;;;10.50;99.90;;;;;;4992721;28;20039;-41
2022/05/25 05:10:35;;;;;;;23.52;18.88;;;10.90;99.90;;;;;;4992861;28;20042;-41
2022/05/25 05:13:04;;;;;;;29.17;17.00;;;10.20;99.90;;;;;;4992665;28;20177;-41
2022/05/25 05:15:40;;;;;;;26.88;18.25;;;11.30;99.90;;;;;;4992287;28;20516;-41
2022/05/25 05:18:07;;;;;;;23.65;16.90;;;11.50;99.90;;;;;;4992493;28;20050;-41
2022/05/25 05:20:33;;;;;;;26.13;18.25;;;12.00;99.90;;;;;;5007546;28;20042;-41
2022/05/25 05:22:58;;;;;;;24.90;17.40;;;12.90;99.90;;;;;;4991066;28;20541;-42
2022/05/25 05:25:25;;;;;;;19.55;15.18;;;12.50;99.90;;;;;;4993047;28;20057;-41
2022/05/25 05:27:51;;;;;;;19.02;16.42;;;12.50;99.90;;;;;;4992762;28;20046;-41
2022/05/25 05:30:21;;;;;;;16.67;14.30;;;12.60;99.90;;;;;;4990249;28;20046;-43
2022/05/25 05:32:48;;;;;;;16.10;13.48;;;13.40;99.90;;;;;;4992492;28;20653;-41
2022/05/25 05:35:14;;;;;;;15.07;11.80;;;13.40;99.90;;;;;;4992369;28;20038;-41
2022/05/25 05:37:45;;;;;;;14.77;11.48;;;13.40;99.90;;;;;;4990829;28;20034;-41
2022/05/25 05:40:13;;;;;;;14.82;10.57;;;14.00;99.90;;;;;;4992053;28;20061;-41
2022/05/25 05:42:40;;;;;;;14.23;9.57;;;14.00;99.90;;;;;;4992117;28;20050;-41
2022/05/25 05:45:16;;;;;;;15.30;10.02;;;14.00;99.90;;;;;;4992223;28;20108;-42
2022/05/25 05:48:04;;;;;;;13.25;8.65;;;14.30;99.90;;;;;;4992104;28;20050;-41
2022/05/25 05:50:31;;;;;;;12.05;7.82;;;15.20;99.90;;;;;;4991910;28;20054;-41
2022/05/25 05:52:57;;;;;;;12.18;7.28;;;17.40;99.90;;;;;;4991487;28;20067;-42
2022/05/25 05:55:23;;;;;;;9.52;7.43;;;19.30;99.90;;;;;;4990377;28;20111;-41
2022/05/25 05:57:50;;;;;;;9.15;6.60;;;20.00;99.90;;;;;;4991705;28;20552;-41
2022/05/25 06:00:16;;;;;;;9.35;7.15;;;21.90;99.90;;;;;;4991269;28;20050;-41
2022/05/25 06:02:43;;;;;;;9.20;5.43;;;23.30;99.90;;;;;;4992022;28;20066;-41
2022/05/25 06:05:10;;;;;;;16.40;6.53;;;24.40;95.20;;;;;;4991757;28;20498;-41
2022/05/25 06:07:37;;;;;;;9.45;6.22;;;24.50;91.60;;;;;;4991527;28;20091;-41
2022/05/25 06:10:05;;;;;;;6.07;5.00;;;24.50;89.00;;;;;;4991519;28;20054;-41
2022/05/25 06:12:32;;;;;;;7.10;5.22;;;24.60;84.10;;;;;;4991398;28;20042;-41
2022/05/25 06:14:58;;;;;;;9.80;6.63;;;24.50;82.20;;;;;;4991376;28;20042;-41
2022/05/25 06:20:09;;;;;;;6.55;5.40;;;22.40;87.70;;;;;;4991495;28;20050;-41
2022/05/25 06:22:36;;;;;;;7.65;5.65;;;21.60;91.90;;;;;;4991275;28;20520;-41
2022/05/25 06:25:03;;;;;;;6.45;4.63;;;21.00;92.80;;;;;;4991391;28;20034;-43
2022/05/25 06:27:29;;;;;;;8.27;5.28;;;20.70;94.30;;;;;;4991597;28;20076;-41
2022/05/25 06:29:55;;;;;;;7.53;5.40;;;20.90;96.10;;;;;;4991446;28;20073;-41
2022/05/25 06:32:27;;;;;;;8.98;5.35;;;22.40;94.50;;;;;;4991011;28;20100;-41
2022/05/25 06:34:53;;;;;;;6.78;4.95;;;24.60;90.20;;;;;;4990885;28;20039;-41
2022/05/25 06:37:21;;;;;;;7.03;4.78;;;26.30;83.80;;;;;;4990821;28;20052;-41
2022/05/25 06:39:47;;;;;;;6.00;4.65;;;27.70;77.10;;;;;;4991145;28;20078;-41
2022/05/25 06:42:13;;;;;;;7.40;4.95;;;28.90;72.60;;;;;;4991088;28;20112;-41
2022/05/25 06:44:39;;;;;;;5.15;4.15;;;29.80;68.50;;;;;;4990774;28;20045;-41
2022/05/25 06:47:05;;;;;;;7.18;4.63;;;30.80;67.20;;;;;;4991018;28;20038;-41
2022/05/25 06:49:32;;;;;;;6.25;3.97;;;31.00;63.60;;;;;;4991036;28;20104;-41
2022/05/25 06:51:58;;;;;;;7.10;4.15;;;31.80;61.20;;;;;;4990910;28;20398;-42
2022/05/25 06:54:23;;;;;;;9.10;3.88;;;32.30;59.10;;;;;;4990341;28;20050;-41
2022/05/25 06:56:50;;;;;;;5.50;3.92;;;32.90;61.20;;;;;;4990454;28;20049;-41
2022/05/25 06:59:15;;;;;;;6.35;4.18;;;33.00;57.20;;;;;;4989091;28;20141;-41
2022/05/25 07:01:42;;;;;;;7.00;3.67;;;33.60;55.60;;;;;;4990889;28;20157;-42
2022/05/25 07:04:08;;;;;;;7.68;3.65;;;34.10;55.00;;;;;;4990186;28;20120;-41
2022/05/25 07:06:36;;;;;;;6.78;3.47;;;34.70;54.00;;;;;;4990735;28;20170;-42
2022/05/25 07:09:03;;;;;;;6.70;3.72;;;34.90;51.70;;;;;;4990452;28;20038;-42
2022/05/25 07:11:29;;;;;;;8.90;3.63;;;35.20;51.70;;;;;;4990430;28;20044;-41
2022/05/25 07:13:55;;;;;;;6.00;4.00;;;35.50;50.50;;;;;;4990592;28;20406;-41
2022/05/25 07:16:22;;;;;;;8.07;3.83;;;35.60;49.00;;;;;;4990663;28;20049;-42
2022/05/25 07:18:48;;;;;;;6.10;3.22;;;35.80;48.80;;;;;;4990802;28;20049;-42
2022/05/25 07:21:17;;;;;;;7.47;2.90;;;36.00;48.10;;;;;;4990159;28;20483;-41
2022/05/25 07:23:46;;;;;;;6.53;3.47;;;36.10;47.40;;;;;;4989900;28;20049;-42
2022/05/25 07:26:11;;;;;;;5.78;3.80;;;36.20;47.80;;;;;;4989516;28;20054;-42
2022/05/25 07:28:38;;;;;;;5.20;3.85;;;36.50;47.00;;;;;;4990045;28;20137;-42
2022/05/25 07:31:15;;;;;;;6.57;3.50;;;36.60;45.90;;;;;;4989774;28;20061;-42
2022/05/25 07:33:44;;;;;;;6.43;3.40;;;36.70;45.50;;;;;;4989348;28;20073;-42
2022/05/25 07:36:10;;;;;;;4.70;3.85;;;36.80;45.60;;;;;;4989667;28;20165;-43
2022/05/25 07:38:41;;;;;;;5.40;2.83;;;36.90;45.70;;;;;;4990029;28;20049;-42
2022/05/25 07:41:08;;;;;;;5.18;2.92;;;36.70;44.90;;;;;;4990088;28;20058;-41
2022/05/25 07:43:34;;;;;;;5.05;3.65;;;36.90;45.70;;;;;;4989802;28;20042;-42
2022/05/25 07:46:00;;;;;;;4.45;3.00;;;37.10;44.60;;;;;;4989767;28;20538;-42
2022/05/25 07:48:26;;;;;;;6.38;2.95;;;37.20;44.20;;;;;;4989780;28;20513;-42
2022/05/25 07:50:52;;;;;;;5.45;1.90;;;37.50;43.80;;;;;;4989711;28;20058;-42
2022/05/25 07:56:03;;;;;;;5.95;2.33;;;37.80;43.10;;;;;;4990025;28;20623;-42
2022/05/25 07:58:33;;;;;;;5.07;1.90;;;37.60;42.60;;;;;;4989571;28;20169;-42
2022/05/25 08:01:04;;;;;;;5.72;1.35;;;37.60;41.70;;;;;;4988509;28;20082;-42
2022/05/25 08:06:15;;;;;;;4.63;1.88;;;37.40;41.80;;;;;;4989898;28;20410;-39
2022/05/25 08:08:44;;;;;;;3.45;1.88;;;37.60;41.20;;;;;;4988415;28;20050;-39
2022/05/25 08:11:13;;;;;;;3.55;1.17;;;37.40;40.60;;;;;;4990093;28;20038;-39
2022/05/25 08:13:43;;;;;;;4.07;1.75;;;36.90;40.60;;;;;;4989652;28;20078;-39
2022/05/25 08:16:09;;;;;;;3.47;1.00;;;36.90;40.40;;;;;;4989772;28;20054;-40
2022/05/25 08:18:35;;;;;;;4.07;1.60;;;36.90;40.30;;;;;;4989016;28;20034;-41
2022/05/25 08:21:02;;;;;;;5.32;1.10;;;36.70;41.40;;;;;;4989401;28;20465;-40
2022/05/25 08:23:28;;;;;;;4.78;1.58;;;37.00;41.60;;;;;;4989391;28;20053;-39
2022/05/25 08:25:53;;;;;;;3.15;1.00;;;37.20;41.80;;;;;;4989037;28;20328;-40
2022/05/25 08:28:19;;;;;;;2.65;1.10;;;37.40;40.80;;;;;;4988484;28;20046;-39
2022/05/25 08:30:45;;;;;;;2.00;0.98;;;37.30;40.00;;;;;;4989479;28;20402;-40
2022/05/25 08:33:15;;;;;;;3.10;1.45;;;36.90;40.40;;;;;;4989214;28;20042;-40
2022/05/25 08:35:41;;;;;;;3.45;1.35;;;36.40;40.20;;;;;;4971715;28;20132;-39
2022/05/25 08:38:07;;;;;;;4.15;1.60;;;36.10;40.80;;;;;;4989525;28;20129;-40
2022/05/25 08:40:33;;;;;;;3.05;1.30;;;36.00;41.00;;;;;;4992756;28;20486;-40
2022/05/25 08:43:07;;;;;;;1.83;0.95;;;36.30;42.10;;;;;;4993411;28;20093;-40
2022/05/25 08:45:45;;;;;;;1.95;0.93;;;36.70;41.30;;;;;;4993072;28;20117;-41
2022/05/25 08:48:13;;;;;;;3.13;0.75;;;37.20;40.20;;;;;;4993192;28;20034;-40
2022/05/25 08:50:41;;;;;;;2.60;0.70;;;36.70;39.70;;;;;;4993332;28;20116;-54
2022/05/25 08:53:10;;;;;;;3.63;0.60;;;36.80;39.90;;;;;;4993787;28;20057;-41
2022/05/25 08:55:51;;;;;;;2.75;0.57;;;37.10;39.50;;;;;;4970257;28;20057;-43
2022/05/25 08:58:20;;;;;;;2.10;0.40;;;37.50;39.60;;;;;;4989124;28;20125;-45
2022/05/25 09:00:48;;;;;;;2.25;0.60;;;37.50;40.00;;;;;;4992235;28;20051;-46
2022/05/25 09:03:17;;;;;;;3.05;1.05;;;37.50;39.20;;;;;;4991021;28;20057;-44
2022/05/25 09:05:51;;;;;;;4.72;0.80;;;37.10;38.20;;;;;;4990611;28;20404;-51
2022/05/25 09:08:34;;;;;;;2.50;1.60;;;35.70;38.30;;;;;;4990984;28;20096;-48
2022/05/25 09:11:24;;;;;;;1.95;0.70;;;34.40;38.90;;;;;;4990030;28;20050;-51
2022/05/25 09:14:02;;;;;;;2.83;0.93;;;33.30;41.40;;;;;;4991795;28;20042;-50
2022/05/25 09:16:32;;;;;;;5.05;1.20;;;32.70;43.00;;;;;;4991231;28;20108;-51
2022/05/25 09:19:19;;;;;;;4.03;0.70;;;31.60;42.40;;;;;;4991349;28;20474;-51
2022/05/25 09:22:05;;;;;;;2.22;0.75;;;31.50;42.80;;;;;;4991056;28;20053;-52
2022/05/25 09:24:32;;;;;;;2.78;0.98;;;31.00;44.60;;;;;;4991205;28;20042;-48
2022/05/25 09:27:00;;;;;;;3.55;1.17;;;30.40;44.00;;;;;;4991446;28;20490;-47
2022/05/25 09:29:26;;;;;;;6.13;0.55;;;29.70;45.30;;;;;;4991048;28;20402;-51
2022/05/25 09:32:28;;;;;;;3.20;0.93;;;28.80;45.50;;;;;;4991618;28;20116;-47
2022/05/25 09:35:15;;;;;;;3.80;0.75;;;27.90;47.10;;;;;;4991201;28;20070;-54
2022/05/25 09:38:05;;;;;;;4.32;0.93;;;27.20;48.70;;;;;;4990804;28;20049;-52
2022/05/25 09:40:46;;;;;;;3.53;0.70;;;26.80;49.00;;;;;;4990419;28;20066;-45
2022/05/25 09:43:17;;;;;;;3.13;0.80;;;26.00;49.20;;;;;;4991326;28;20068;-52
2022/05/25 09:46:09;;;;;;;;;;;25.70;50.10;;;;;;4991281;28;20041;-53
2022/05/25 09:48:49;;;;;;;2.53;1.00;;;25.50;51.60;;;;;;4988163;28;19944;-54
2022/05/25 09:51:22;;;;;;;3.22;1.35;;;25.30;51.80;;;;;;4991185;28;20052;-44
2022/05/25 09:54:21;;;;;;;7.10;1.10;;;25.30;52.70;;;;;;4989463;28;20058;-45
2022/05/25 09:56:53;;;;;;;3.45;0.90;;;25.20;52.70;;;;;;4990986;28;20077;-43
2022/05/25 09:59:30;;;;;;;3.00;1.00;;;25.20;52.40;;;;;;4991220;28;20043;-40
2022/05/25 10:01:57;;;;;;;4.15;1.23;;;25.40;52.40;;;;;;4991084;28;20792;-44
2022/05/25 10:04:55;;;;;;;2.55;0.95;;;25.40;52.00;;;;;;4988864;28;20383;-40
2022/05/25 10:07:37;;;;;;;4.22;1.42;;;26.00;52.10;;;;;;4990447;28;20104;-39
2022/05/25 10:10:10;;;;;;;3.58;1.10;;;26.80;52.00;;;;;;4990577;28;20062;-42
2022/05/25 10:12:45;;;;;;;5.32;1.17;;;27.20;49.90;;;;;;4988695;28;20466;-47
2022/05/25 10:15:27;;;;;;;1.90;0.88;;;27.50;50.00;;;;;;4990649;28;20050;-46
2022/05/25 10:17:53;;;;;;;2.83;1.00;;;28.50;50.00;;;;;;4990667;28;20050;-46
2022/05/25 10:20:22;;;;;;;3.33;1.05;;;29.40;49.00;;;;;;4990037;28;20566;-51
2022/05/25 10:23:11;;;;;;;3.95;0.65;;;29.50;48.10;;;;;;4988393;28;20136;-48
2022/05/25 10:25:44;;;;;;;3.65;0.70;;;29.20;47.70;;;;;;4990009;28;20137;-44
2022/05/25 10:28:44;;;;;;;4.72;0.80;;;28.80;48.30;;;;;;4989382;28;20489;-43
2022/05/25 10:37:00;;;;;;;3.53;0.65;;;26.20;49.80;;;;;;4955185;28;20054;-42
2022/05/25 10:39:29;;;;;;;2.47;1.13;;;25.40;51.90;;;;;;4990812;28;20132;-41
2022/05/25 10:42:02;;;;;;;2.58;1.25;;;25.00;53.10;;;;;;4991219;28;20146;-41
2022/05/25 10:44:36;;;;;;;2.35;1.10;;;24.50;53.10;;;;;;4991210;28;20042;-42
2022/05/25 10:47:03;;;;;;;4.53;1.20;;;;;;;;;;4991477;28;20088;-41
2022/05/25 10:49:42;;;;;;;2.47;1.10;;;23.90;90.80;;;;;;4991263;28;20129;-41
2022/05/25 10:52:34;;;;;;;2.60;0.98;;;23.00;55.70;;;;;;4991443;28;20066;-43
2022/05/25 10:55:00;;;;;;;4.40;0.85;;;22.50;59.00;;;;;;4988154;28;20054;-42
2022/05/25 10:58:03;;;;;;;4.88;1.08;;;22.50;59.10;;;;;;4991175;28;20077;-41
2022/05/25 11:01:06;;;;;;;3.58;0.90;;;22.80;60.50;;;;;;4990450;28;20038;-40
2022/05/25 11:04:19;;;;;;;4.40;1.02;;;23.00;58.10;;;;;;4990831;28;20057;-41
2022/05/25 11:06:55;;;;;;;6.30;1.33;;;23.30;58.00;;;;;;4968134;28;20494;-42
2022/05/25 11:09:48;;;;;;;3.58;1.27;;;23.50;56.70;;;;;;4987420;28;20120;-43
2022/05/25 11:12:34;;;;;;;4.88;1.42;;;23.60;57.50;;;;;;4990717;28;20117;-42
2022/05/25 11:15:19;;;;;;;3.00;1.10;;;23.60;57.90;;;;;;4990231;28;20132;-42
2022/05/25 11:18:22;;;;;;;2.58;0.90;;;23.70;57.30;;;;;;4990391;28;20045;-43
2022/05/25 11:21:29;;;;;;;2.95;1.10;;;23.60;58.30;;;;;;4990227;28;20129;-42
2022/05/25 11:24:23;;;;;;;3.65;1.00;;;23.60;57.70;;;;;;4990502;28;20073;-42
2022/05/25 11:27:29;;;;;;;5.22;1.08;;;23.50;57.30;;;;;;4989203;28;20076;-42
2022/05/25 11:30:07;;;;;;;1.95;0.70;;;23.50;57.30;;;;;;4990772;28;20061;-41
2022/05/25 11:32:50;;;;;;;2.72;0.70;;;23.20;57.30;;;;;;4989065;28;20379;-41
2022/05/25 11:35:26;;;;;;;6.07;0.50;;;23.00;56.50;;;;;;4990255;28;20042;-42
2022/05/25 11:38:19;;;;;;;2.80;0.40;;;22.80;56.60;;;;;;4990368;28;20391;-41
2022/05/25 11:41:16;;;;;;;2.85;0.50;;;22.70;57.70;;;;;;4989763;28;20494;-41
2022/05/25 11:44:17;;;;;;;4.93;1.00;;;22.50;57.60;;;;;;4989999;28;20050;-41
2022/05/25 11:46:44;;;;;;;4.45;1.23;;;22.40;56.90;;;;;;4989602;28;20100;-42
2022/05/25 11:49:29;;;;;;;0.95;0.50;;;22.40;57.50;;;;;;4989532;28;20490;-43
2022/05/25 11:51:55;;;;;;;4.53;1.00;;;22.50;56.50;;;;;;4989793;28;20455;-41
2022/05/25 11:54:58;;;;;;;2.90;0.65;;;22.60;56.40;;;;;;4989733;28;20062;-41
2022/05/25 11:57:45;;;;;;;4.90;0.93;;;22.50;56.50;;;;;;4989937;28;20393;-41
2022/05/25 12:00:34;;;;;;;4.28;1.23;;;22.40;56.80;;;;;;4989183;28;20057;-42
2022/05/25 12:03:17;;;;;;;4.43;1.08;;;22.40;57.00;;;;;;4989570;28;20049;-41
2022/05/25 12:06:12;;;;;;;3.45;1.30;;;22.30;65.10;;;;;;4989633;28;20042;-42
2022/05/25 12:09:04;;;;;;;4.30;1.13;;;21.60;56.80;;;;;;4989446;28;20100;-41
2022/05/25 12:11:42;;;;;;;4.00;1.10;;;21.10;58.10;;;;;;4989606;28;20054;-41
2022/05/25 12:14:24;;;;;;;5.03;1.48;;;20.80;59.70;;;;;;4989913;28;20486;-41
2022/05/25 12:16:51;;;;;;;;;;;20.40;61.00;;;;;;4990162;28;20614;-42
2022/05/25 12:19:23;;;;;;;7.40;2.97;;;20.00;62.20;;;;;;4989550;28;20264;-43
2022/05/25 12:21:53;;;;;;;3.80;2.00;;;19.10;67.30;;;;;;4989375;28;20050;-41
2022/05/25 12:24:24;;;;;;;7.28;2.85;;;18.70;66.10;;;;;;4989716;28;20050;-44
2022/05/25 12:26:50;;;;;;;4.57;3.05;;;18.50;70.20;;;;;;4989181;28;20139;-43
2022/05/25 12:29:34;;;;;;;4.97;3.22;;;17.70;73.70;;;;;;4989124;28;20580;-44
2022/05/25 12:32:00;;;;;;;5.03;3.72;;;17.20;79.90;;;;;;4987982;28;20069;-44
2022/05/25 12:34:35;;;;;;;5.68;3.42;;;16.90;84.10;;;;;;4989535;28;20038;-43
2022/05/25 12:37:03;;;;;;;7.50;4.20;;;16.90;90.20;;;;;;4988981;28;20117;-45
2022/05/25 12:39:47;;;;;;;6.32;3.53;;;17.10;90.10;;;;;;4989457;28;20046;-44
2022/05/25 12:42:25;;;;;;;6.15;3.92;;;17.60;91.20;;;;;;4989266;28;20493;-43
2022/05/25 12:50:33;;;;;;;4.55;2.92;;;18.90;84.80;;;;;;4989665;28;20061;-45
2022/05/25 12:53:16;;;;;;;4.28;3.33;;;19.20;83.50;;;;;;4989030;28;20054;-44
2022/05/25 12:55:42;;;;;;;5.20;3.30;;;19.50;82.30;;;;;;4989471;28;20050;-46
2022/05/25 12:58:09;;;;;;;5.47;3.70;;;19.70;81.00;;;;;;4989425;28;20035;-45
2022/05/25 13:00:40;;;;;;;6.40;3.28;;;20.10;79.40;;;;;;4988005;28;20042;-44
2022/05/25 13:03:18;;;;;;;4.07;2.95;;;20.30;78.60;;;;;;4989342;28;20054;-44
2022/05/25 13:05:46;;;;;;;7.78;3.55;;;20.60;77.70;;;;;;4989265;28;20042;-45
2022/05/25 13:08:49;;;;;;;3.42;3.08;;;20.60;76.20;;;;;;4989328;28;20121;-44
2022/05/25 13:11:40;;;;;;;5.75;2.90;;;20.30;75.60;;;;;;4989551;28;20376;-44
2022/05/25 13:14:18;;;;;;;4.40;2.90;;;19.60;76.10;;;;;;4989236;28;20038;-44
2022/05/25 13:16:45;;;;;;;5.60;2.22;;;19.10;77.50;;;;;;4989071;28;20050;-44
2022/05/25 13:19:19;;;;;;;5.20;2.30;;;19.00;79.00;;;;;;4989159;28;20058;-44
2022/05/25 13:22:09;;;;;;;8.43;2.00;;;19.40;80.80;;;;;;4989194;28;20049;-43
2022/05/25 13:24:49;;;;;;;6.40;1.67;;;19.90;79.30;;;;;;4991198;28;20042;-43
2022/05/25 13:27:15;;;;;;;4.35;0.90;;;20.30;78.10;;;;;;4992537;28;20045;-44
2022/05/25 13:29:53;;;;;;;3.72;1.17;;;20.60;77.50;;;;;;4991018;28;20086;-45
2022/05/25 13:32:34;;;;;;;4.07;0.88;;;20.90;76.20;;;;;;4992497;28;20169;-44
2022/05/25 13:35:28;;;;;;;6.93;0.95;;;20.90;74.20;;;;;;4990655;28;20053;-44
2022/05/25 13:38:10;;;;;;;10.40;0.73;;;20.70;73.00;;;;;;4990271;28;20133;-44